Safety First — WDI4825 — position and weather

sailwx.info

Track history (hours):
 
Tides and Currents Weather Stations Pressure Air Temp Water Temp Dewpoint Dewpoint Depression Visibility Wind Speed Wind Dir Waves Ship Positions

Safety First

Owner: American Commercial Barge Line LLC, Jeffersonville, IN. More information available from US FCC via Universal Licensing System and Coast Guard Vessel Documentation Center.

Last reported at 2017-Nov-19 15:59 UTC. Time now 2017-Nov-23 09:38 UTC.
Position N 29°51' W 091°56'.

Length 23 m; draft 3 m.

Type: Towing. MMSI: 367702400.

Date/timePositionNaut miles runAvg speedWind from/ knotsBaromVisibWave heightAir tempDewpointWater temp
2017-Nov-19 15:59N 29°51' W 091°56'3 6.6
2017-Nov-19 15:30N 29°50' W 091°60'4 6.8
2017-Nov-19 14:59N 29°49' W 092°04'3 6.7
2017-Nov-19 14:30N 29°47' W 092°07'3 6.7
2017-Nov-19 14:00N 29°47' W 092°11'3 5.1
2017-Nov-19 13:30N 29°48' W 092°14'0 0.1
2017-Nov-19 13:00N 29°48' W 092°14'0 0.0
2017-Nov-19 12:30N 29°48' W 092°14'2 3.1
2017-Nov-19 12:00N 29°48' W 092°15'3 6.4
2017-Nov-19 11:30N 29°50' W 092°18'41 5.7
2017-Nov-19 04:19N 29°56' W 093°05'2 6.8
2017-Nov-19 04:00N 29°56' W 093°07'3 5.9
2017-Nov-19 03:30N 29°57' W 093°10'3 6.3
2017-Nov-19 03:00N 29°59' W 093°13'3 5.5
2017-Nov-19 02:30N 30°02' W 093°15'1 2.2
2017-Nov-19 02:00N 30°02' W 093°16'2 3.3
2017-Nov-19 01:30N 30°04' W 093°16'2 4.2
2017-Nov-19 01:00N 30°06' W 093°18'0 0.4
2017-Nov-19 00:30N 30°06' W 093°18'0 0.1
2017-Nov-19 00:00N 30°06' W 093°18'0 0.0
2017-Nov-18 23:30N 30°06' W 093°18'0 0.0
2017-Nov-18 23:00N 30°06' W 093°18'0 0.0
2017-Nov-18 22:30N 30°06' W 093°18'0 0.0
2017-Nov-18 22:00N 30°06' W 093°18'0 0.0
2017-Nov-18 21:30N 30°06' W 093°18'0 0.0
2017-Nov-18 21:00N 30°06' W 093°18'0 0.0
2017-Nov-18 20:30N 30°06' W 093°18'0 0.0
2017-Nov-18 20:00N 30°06' W 093°18'0 0.7
2017-Nov-18 19:30N 30°06' W 093°18'0 0.0
2017-Nov-18 19:00N 30°06' W 093°18'0 0.1
2017-Nov-18 18:30N 30°06' W 093°18'0 0.0
2017-Nov-18 18:00N 30°06' W 093°18'0 0.0
2017-Nov-18 17:30N 30°06' W 093°18'0 0.0
2017-Nov-18 17:00N 30°06' W 093°18'0 0.0
2017-Nov-18 16:30N 30°06' W 093°18'0 0.0
2017-Nov-18 16:00N 30°06' W 093°18'0 0.0
2017-Nov-18 15:30N 30°06' W 093°18'0 0.0
2017-Nov-18 15:00N 30°06' W 093°18'0 0.0
2017-Nov-18 14:30N 30°06' W 093°18'0 0.0
2017-Nov-18 14:00N 30°06' W 093°18'0 0.0
2017-Nov-18 13:30N 30°06' W 093°18'0 0.0
2017-Nov-18 13:00N 30°06' W 093°18'0 0.0
2017-Nov-18 12:30N 30°06' W 093°18'0 0.0
2017-Nov-18 12:00N 30°06' W 093°18'0 0.1
2017-Nov-18 11:30N 30°06' W 093°18'0 0.0
2017-Nov-18 11:00N 30°06' W 093°18'0 0.0
2017-Nov-18 10:30N 30°06' W 093°18'0 0.8
2017-Nov-18 10:01N 30°06' W 093°19'3 5.5
2017-Nov-18 09:30N 30°04' W 093°21'2 3.8
2017-Nov-18 09:00N 30°04' W 093°23'3 6.5
2017-Nov-18 08:30N 30°04' W 093°27'3 6.5
2017-Nov-18 08:00N 30°04' W 093°30'7 0.3
2017-Nov-17 08:25N 30°04' W 093°39'3 4.4
2017-Nov-17 07:44N 30°04' W 093°35'1 4.8
2017-Nov-17 07:29N 30°04' W 093°34'2 4.8
2017-Nov-17 07:00N 30°04' W 093°31'2 5.0
2017-Nov-17 06:30N 30°04' W 093°29'3 5.0
2017-Nov-17 06:00N 30°04' W 093°26'2 5.0
2017-Nov-17 05:30N 30°04' W 093°23'2 3.8
2017-Nov-17 05:00N 30°04' W 093°21'2 4.9
2017-Nov-17 04:30N 30°06' W 093°19'1 2.9
2017-Nov-17 04:00N 30°05' W 093°17'1 2.1
2017-Nov-17 03:30N 30°05' W 093°17'0 0.0
2017-Nov-17 03:00N 30°05' W 093°17'1 2.7
2017-Nov-17 02:30N 30°03' W 093°16'2 4.1
2017-Nov-17 02:00N 30°02' W 093°14'2 4.3
2017-Nov-17 01:30N 29°60' W 093°13'2 4.7
2017-Nov-17 01:00N 29°58' W 093°11'2 4.7
2017-Nov-17 00:30N 29°56' W 093°10'2 4.6
2017-Nov-17 00:00N 29°56' W 093°07'2 4.5
2017-Nov-16 23:30N 29°56' W 093°04'37 4.5
2017-Nov-16 15:09N 29°51' W 092°22'1 4.9
2017-Nov-16 15:00N 29°51' W 092°21'2 5.0
2017-Nov-16 14:30N 29°50' W 092°18'2 4.9
2017-Nov-16 14:00N 29°49' W 092°16'3 5.0
2017-Nov-16 13:30N 29°48' W 092°13'1 2.0
2017-Nov-16 13:00N 29°47' W 092°12'0 0.0
2017-Nov-16 12:30N 29°47' W 092°12'0 0.8
2017-Nov-16 12:00N 29°47' W 092°12'1 1.9
2017-Nov-16 11:30N 29°47' W 092°11'0 0.0
2017-Nov-16 11:00N 29°47' W 092°11'0 0.0
2017-Nov-16 10:30N 29°47' W 092°11'0 0.0
2017-Nov-16 10:00N 29°47' W 092°11'0 0.0
2017-Nov-16 09:30N 29°47' W 092°11'0 0.0
2017-Nov-16 09:00N 29°47' W 092°11'0 0.0
2017-Nov-16 08:30N 29°47' W 092°11'0 0.0
2017-Nov-16 08:00N 29°47' W 092°11'0 0.0
2017-Nov-16 07:30N 29°47' W 092°11'0 0.0
2017-Nov-16 07:00N 29°47' W 092°11'0 0.1
2017-Nov-16 06:30N 29°47' W 092°11'2 3.7
2017-Nov-16 06:00N 29°47' W 092°09'2 4.2
2017-Nov-16 05:30N 29°48' W 092°07'2 4.9
2017-Nov-16 05:00N 29°48' W 092°04'2 4.9
2017-Nov-16 04:30N 29°49' W 092°01'2 4.7
2017-Nov-16 04:00N 29°50' W 091°59'2 4.9
2017-Nov-16 03:30N 29°51' W 091°56'54 4.7
2017-Nov-15 15:55N 29°34' W 090°57'2 5.5
2017-Nov-15 15:30N 29°33' W 090°55'4 5.2
2017-Nov-15 14:44N 29°32' W 090°50'1 5.3
2017-Nov-15 14:30N 29°32' W 090°49'3 5.1
2017-Nov-15 14:00N 29°32' W 090°46'2 4.7
2017-Nov-15 13:30N 29°34' W 090°44'2 4.0
2017-Nov-15 13:00N 29°36' W 090°43'1 2.9
2017-Nov-15 12:30N 29°37' W 090°41'2 4.7
2017-Nov-15 12:00N 29°36' W 090°39'2 4.7
2017-Nov-15 11:30N 29°35' W 090°36'3 4.4
2017-Nov-15 10:55N 29°34' W 090°34'2 4.7
2017-Nov-15 10:30N 29°34' W 090°31'2 4.9
2017-Nov-15 10:00N 29°34' W 090°29'4 4.8
2017-Nov-15 09:11N 29°33' W 090°24'  
2017-Nov-11 14:51N 29°33' W 090°26'2 7.0
2017-Nov-11 14:30N 29°34' W 090°29'3 6.9
2017-Nov-11 14:00N 29°34' W 090°33'3 6.8
2017-Nov-11 13:30N 29°35' W 090°36'4 7.1
2017-Nov-11 13:00N 29°36' W 090°40'2 4.6
2017-Nov-11 12:30N 29°36' W 090°43'2 4.4
2017-Nov-11 12:01N 29°34' W 090°44'1 2.9
2017-Nov-11 11:30N 29°33' W 090°45'1 2.2
2017-Nov-11 11:00N 29°32' W 090°46'3 6.3
2017-Nov-11 10:30N 29°32' W 090°49'4 6.5
2017-Nov-11 09:55N 29°33' W 090°54'4 6.7
2017-Nov-11 09:19N 29°35' W 090°58'65 5.0
2017-Nov-10 20:25N 29°47' W 092°11'3 6.1
2017-Nov-10 19:59N 29°48' W 092°14'1 1.6
2017-Nov-10 19:29N 29°48' W 092°15'0 0.0
2017-Nov-10 18:59N 29°48' W 092°15'0 0.0
2017-Nov-10 18:29N 29°48' W 092°15'1 1.5
2017-Nov-10 17:59N 29°48' W 092°15'2 3.1
2017-Nov-10 17:29N 29°49' W 092°17'3 6.2
2017-Nov-10 16:59N 29°51' W 092°20'36 6.2
2017-Nov-10 11:11N 29°56' W 093°01'3 6.2
2017-Nov-10 10:43N 29°56' W 093°04'2 5.9
2017-Nov-10 10:27N 29°56' W 093°06'2 5.4
2017-Nov-10 10:00N 29°56' W 093°09'3 5.5
2017-Nov-10 09:30N 29°58' W 093°11'3 5.7
2017-Nov-10 09:00N 30°00' W 093°13'3 5.4
2017-Nov-10 08:30N 30°02' W 093°15'3 5.6
2017-Nov-10 08:00N 30°05' W 093°17'1 2.7
2017-Nov-10 07:30N 30°06' W 093°18'0 0.5
2017-Nov-10 07:00N 30°06' W 093°18'1 1.6
2017-Nov-10 06:30N 30°06' W 093°19'2 4.6
2017-Nov-10 06:00N 30°04' W 093°21'3 5.6
2017-Nov-10 05:30N 30°04' W 093°24'3 6.4
2017-Nov-10 05:00N 30°04' W 093°28'3 6.5
2017-Nov-10 04:30N 30°04' W 093°31'4 7.0
2017-Nov-10 03:59N 30°04' W 093°36'8 7.2
2017-Nov-10 02:54N 30°02' W 093°44'  
Track history (hours):
 
Tides and Currents Weather Stations Pressure Air Temp Water Temp Dewpoint Dewpoint Depression Visibility Wind Speed Wind Dir Waves Ship Positions

Safety First

Owner: American Commercial Barge Line LLC, Jeffersonville, IN. More information available from US FCC via Universal Licensing System and Coast Guard Vessel Documentation Center.

Last reported at 2017-Nov-19 15:59 UTC. Time now 2017-Nov-23 09:38 UTC.
Position N 29°51' W 091°56'.

Length 23 m; draft 3 m.

Type: Towing. MMSI: 367702400.

Date/timePositionNaut miles runAvg speedWind from/ knotsBaromVisibWave heightAir tempDewpointWater temp
2017-Nov-19 15:59N 29°51' W 091°56'3 6.6
2017-Nov-19 15:30N 29°50' W 091°60'4 6.8
2017-Nov-19 14:59N 29°49' W 092°04'3 6.7
2017-Nov-19 14:30N 29°47' W 092°07'3 6.7
2017-Nov-19 14:00N 29°47' W 092°11'3 5.1
2017-Nov-19 13:30N 29°48' W 092°14'0 0.1
2017-Nov-19 13:00N 29°48' W 092°14'0 0.0
2017-Nov-19 12:30N 29°48' W 092°14'2 3.1
2017-Nov-19 12:00N 29°48' W 092°15'3 6.4
2017-Nov-19 11:30N 29°50' W 092°18'41 5.7
2017-Nov-19 04:19N 29°56' W 093°05'2 6.8
2017-Nov-19 04:00N 29°56' W 093°07'3 5.9
2017-Nov-19 03:30N 29°57' W 093°10'3 6.3
2017-Nov-19 03:00N 29°59' W 093°13'3 5.5
2017-Nov-19 02:30N 30°02' W 093°15'1 2.2
2017-Nov-19 02:00N 30°02' W 093°16'2 3.3
2017-Nov-19 01:30N 30°04' W 093°16'2 4.2
2017-Nov-19 01:00N 30°06' W 093°18'0 0.4
2017-Nov-19 00:30N 30°06' W 093°18'0 0.1
2017-Nov-19 00:00N 30°06' W 093°18'0 0.0
2017-Nov-18 23:30N 30°06' W 093°18'0 0.0
2017-Nov-18 23:00N 30°06' W 093°18'0 0.0
2017-Nov-18 22:30N 30°06' W 093°18'0 0.0
2017-Nov-18 22:00N 30°06' W 093°18'0 0.0
2017-Nov-18 21:30N 30°06' W 093°18'0 0.0
2017-Nov-18 21:00N 30°06' W 093°18'0 0.0
2017-Nov-18 20:30N 30°06' W 093°18'0 0.0
2017-Nov-18 20:00N 30°06' W 093°18'0 0.7
2017-Nov-18 19:30N 30°06' W 093°18'0 0.0
2017-Nov-18 19:00N 30°06' W 093°18'0 0.1
2017-Nov-18 18:30N 30°06' W 093°18'0 0.0
2017-Nov-18 18:00N 30°06' W 093°18'0 0.0
2017-Nov-18 17:30N 30°06' W 093°18'0 0.0
2017-Nov-18 17:00N 30°06' W 093°18'0 0.0
2017-Nov-18 16:30N 30°06' W 093°18'0 0.0
2017-Nov-18 16:00N 30°06' W 093°18'0 0.0
2017-Nov-18 15:30N 30°06' W 093°18'0 0.0
2017-Nov-18 15:00N 30°06' W 093°18'0 0.0
2017-Nov-18 14:30N 30°06' W 093°18'0 0.0
2017-Nov-18 14:00N 30°06' W 093°18'0 0.0
2017-Nov-18 13:30N 30°06' W 093°18'0 0.0
2017-Nov-18 13:00N 30°06' W 093°18'0 0.0
2017-Nov-18 12:30N 30°06' W 093°18'0 0.0
2017-Nov-18 12:00N 30°06' W 093°18'0 0.1
2017-Nov-18 11:30N 30°06' W 093°18'0 0.0
2017-Nov-18 11:00N 30°06' W 093°18'0 0.0
2017-Nov-18 10:30N 30°06' W 093°18'0 0.8
2017-Nov-18 10:01N 30°06' W 093°19'3 5.5
2017-Nov-18 09:30N 30°04' W 093°21'2 3.8
2017-Nov-18 09:00N 30°04' W 093°23'3 6.5
2017-Nov-18 08:30N 30°04' W 093°27'3 6.5
2017-Nov-18 08:00N 30°04' W 093°30'7 0.3
2017-Nov-17 08:25N 30°04' W 093°39'3 4.4
2017-Nov-17 07:44N 30°04' W 093°35'1 4.8
2017-Nov-17 07:29N 30°04' W 093°34'2 4.8
2017-Nov-17 07:00N 30°04' W 093°31'2 5.0
2017-Nov-17 06:30N 30°04' W 093°29'3 5.0
2017-Nov-17 06:00N 30°04' W 093°26'2 5.0
2017-Nov-17 05:30N 30°04' W 093°23'2 3.8
2017-Nov-17 05:00N 30°04' W 093°21'2 4.9
2017-Nov-17 04:30N 30°06' W 093°19'1 2.9
2017-Nov-17 04:00N 30°05' W 093°17'1 2.1
2017-Nov-17 03:30N 30°05' W 093°17'0 0.0
2017-Nov-17 03:00N 30°05' W 093°17'1 2.7
2017-Nov-17 02:30N 30°03' W 093°16'2 4.1
2017-Nov-17 02:00N 30°02' W 093°14'2 4.3
2017-Nov-17 01:30N 29°60' W 093°13'2 4.7
2017-Nov-17 01:00N 29°58' W 093°11'2 4.7
2017-Nov-17 00:30N 29°56' W 093°10'2 4.6
2017-Nov-17 00:00N 29°56' W 093°07'2 4.5
2017-Nov-16 23:30N 29°56' W 093°04'37 4.5
2017-Nov-16 15:09N 29°51' W 092°22'1 4.9
2017-Nov-16 15:00N 29°51' W 092°21'2 5.0
2017-Nov-16 14:30N 29°50' W 092°18'2 4.9
2017-Nov-16 14:00N 29°49' W 092°16'3 5.0
2017-Nov-16 13:30N 29°48' W 092°13'1 2.0
2017-Nov-16 13:00N 29°47' W 092°12'0 0.0
2017-Nov-16 12:30N 29°47' W 092°12'0 0.8
2017-Nov-16 12:00N 29°47' W 092°12'1 1.9
2017-Nov-16 11:30N 29°47' W 092°11'0 0.0
2017-Nov-16 11:00N 29°47' W 092°11'0 0.0
2017-Nov-16 10:30N 29°47' W 092°11'0 0.0
2017-Nov-16 10:00N 29°47' W 092°11'0 0.0
2017-Nov-16 09:30N 29°47' W 092°11'0 0.0
2017-Nov-16 09:00N 29°47' W 092°11'0 0.0
2017-Nov-16 08:30N 29°47' W 092°11'0 0.0
2017-Nov-16 08:00N 29°47' W 092°11'0 0.0
2017-Nov-16 07:30N 29°47' W 092°11'0 0.0
2017-Nov-16 07:00N 29°47' W 092°11'0 0.1
2017-Nov-16 06:30N 29°47' W 092°11'2 3.7
2017-Nov-16 06:00N 29°47' W 092°09'2 4.2
2017-Nov-16 05:30N 29°48' W 092°07'2 4.9
2017-Nov-16 05:00N 29°48' W 092°04'2 4.9
2017-Nov-16 04:30N 29°49' W 092°01'2 4.7
2017-Nov-16 04:00N 29°50' W 091°59'2 4.9
2017-Nov-16 03:30N 29°51' W 091°56'54 4.7
2017-Nov-15 15:55N 29°34' W 090°57'2 5.5
2017-Nov-15 15:30N 29°33' W 090°55'4 5.2
2017-Nov-15 14:44N 29°32' W 090°50'1 5.3
2017-Nov-15 14:30N 29°32' W 090°49'3 5.1
2017-Nov-15 14:00N 29°32' W 090°46'2 4.7
2017-Nov-15 13:30N 29°34' W 090°44'2 4.0
2017-Nov-15 13:00N 29°36' W 090°43'1 2.9
2017-Nov-15 12:30N 29°37' W 090°41'2 4.7
2017-Nov-15 12:00N 29°36' W 090°39'2 4.7
2017-Nov-15 11:30N 29°35' W 090°36'3 4.4
2017-Nov-15 10:55N 29°34' W 090°34'2 4.7
2017-Nov-15 10:30N 29°34' W 090°31'2 4.9
2017-Nov-15 10:00N 29°34' W 090°29'4 4.8
2017-Nov-15 09:11N 29°33' W 090°24'  
2017-Nov-11 14:51N 29°33' W 090°26'2 7.0
2017-Nov-11 14:30N 29°34' W 090°29'3 6.9
2017-Nov-11 14:00N 29°34' W 090°33'3 6.8
2017-Nov-11 13:30N 29°35' W 090°36'4 7.1
2017-Nov-11 13:00N 29°36' W 090°40'2 4.6
2017-Nov-11 12:30N 29°36' W 090°43'2 4.4
2017-Nov-11 12:01N 29°34' W 090°44'1 2.9
2017-Nov-11 11:30N 29°33' W 090°45'1 2.2
2017-Nov-11 11:00N 29°32' W 090°46'3 6.3
2017-Nov-11 10:30N 29°32' W 090°49'4 6.5
2017-Nov-11 09:55N 29°33' W 090°54'4 6.7
2017-Nov-11 09:19N 29°35' W 090°58'65 5.0
2017-Nov-10 20:25N 29°47' W 092°11'3 6.1
2017-Nov-10 19:59N 29°48' W 092°14'1 1.6
2017-Nov-10 19:29N 29°48' W 092°15'0 0.0
2017-Nov-10 18:59N 29°48' W 092°15'0 0.0
2017-Nov-10 18:29N 29°48' W 092°15'1 1.5
2017-Nov-10 17:59N 29°48' W 092°15'2 3.1
2017-Nov-10 17:29N 29°49' W 092°17'3 6.2
2017-Nov-10 16:59N 29°51' W 092°20'36 6.2
2017-Nov-10 11:11N 29°56' W 093°01'3 6.2
2017-Nov-10 10:43N 29°56' W 093°04'2 5.9
2017-Nov-10 10:27N 29°56' W 093°06'2 5.4
2017-Nov-10 10:00N 29°56' W 093°09'3 5.5
2017-Nov-10 09:30N 29°58' W 093°11'3 5.7
2017-Nov-10 09:00N 30°00' W 093°13'3 5.4
2017-Nov-10 08:30N 30°02' W 093°15'3 5.6
2017-Nov-10 08:00N 30°05' W 093°17'1 2.7
2017-Nov-10 07:30N 30°06' W 093°18'0 0.5
2017-Nov-10 07:00N 30°06' W 093°18'1 1.6
2017-Nov-10 06:30N 30°06' W 093°19'2 4.6
2017-Nov-10 06:00N 30°04' W 093°21'3 5.6
2017-Nov-10 05:30N 30°04' W 093°24'3 6.4
2017-Nov-10 05:00N 30°04' W 093°28'3 6.5
2017-Nov-10 04:30N 30°04' W 093°31'4 7.0
2017-Nov-10 03:59N 30°04' W 093°36'8 7.2
2017-Nov-10 02:54N 30°02' W 093°44'  

Dump ship's entire track history